Time;durP1;ratioP1;P1;durP2;ratioP2;P2;SDS_P1;SDS_P2;PMS_P1;PMS_P2;Temp;Humidity;BMP_temperature;BMP_pressure;BME280_temperature;BME280_humidity;BME280_pressure;Samples;Min_cycle;Max_cycle;Signal;HPM_P1;HPM_P2
2022/08/25 00:00:49;;;;;;;10.57;8.15;;;;;;;22.96;67.69;101512.28;5088131;28;20048;-68
2022/08/25 00:03:16;;;;;;;12.63;8.02;;;;;;;22.87;68.72;101519.34;5082412;27;20481;-68
2022/08/25 00:05:43;;;;;;;14.40;8.40;;;;;;;23.05;68.24;101512.31;5087490;27;20097;-68
2022/08/25 00:08:09;;;;;;;12.60;8.13;;;;;;;22.74;69.74;101510.72;5094868;27;20048;-68
2022/08/25 00:10:41;;;;;;;19.23;9.95;;;;;;;22.56;70.71;101510.53;5097449;27;20048;-68
2022/08/25 00:13:07;;;;;;;16.63;8.07;;;;;;;22.16;72.80;101507.88;5106378;27;20044;-68
2022/08/25 00:15:37;;;;;;;13.50;8.07;;;;;;;22.36;72.03;101508.78;5088795;27;20097;-68
2022/08/25 00:18:04;;;;;;;11.25;7.80;;;;;;;22.60;71.40;101506.59;5085638;27;20139;-68
2022/08/25 00:20:30;;;;;;;11.07;7.80;;;;;;;22.52;71.81;101509.09;5084832;27;20682;-68
2022/08/25 00:22:57;;;;;;;13.75;7.75;;;;;;;22.27;73.27;101502.44;5067904;28;20041;-68
2022/08/25 00:25:24;;;;;;;14.05;8.48;;;;;;;22.46;72.45;101511.50;5074732;28;20048;-68
2022/08/25 00:27:51;;;;;;;13.25;7.32;;;;;;;22.54;72.21;101514.34;5080073;28;20101;-70
2022/08/25 00:30:17;;;;;;;13.88;7.88;;;;;;;22.35;73.38;101517.78;5086938;27;20460;-70
2022/08/25 00:32:47;;;;;;;14.88;8.30;;;;;;;22.51;73.16;101512.75;5086132;28;20048;-70
2022/08/25 00:35:14;;;;;;;19.30;8.43;;;;;;;22.47;73.28;101508.66;5087172;28;20133;-70
2022/08/25 00:37:40;;;;;;;11.07;7.47;;;;;;;22.73;72.39;101509.88;5090755;27;20097;-70
2022/08/25 00:40:08;;;;;;;10.52;7.95;;;;;;;22.93;71.48;101513.41;5097346;27;20043;-70
2022/08/25 00:42:35;;;;;;;14.10;8.05;;;;;;;22.63;72.53;101505.47;5096718;27;20040;-70
2022/08/25 00:45:02;;;;;;;16.27;8.05;;;;;;;22.56;73.09;101515.03;5086612;27;20036;-70
2022/08/25 00:47:30;;;;;;;9.93;7.70;;;;;;;22.56;73.33;101521.22;5073329;28;20112;-70
2022/08/25 00:50:01;;;;;;;11.75;8.05;;;;;;;22.50;73.53;101516.44;5087193;28;20054;-70
2022/08/25 00:52:31;;;;;;;12.93;7.93;;;;;;;22.62;73.32;101514.47;5085387;27;20098;-70
2022/08/25 00:55:02;;;;;;;11.77;7.65;;;;;;;22.45;73.92;101520.47;5087231;28;20044;-70
2022/08/25 00:57:33;;;;;;;13.90;8.73;;;;;;;22.63;73.22;101522.34;5087649;28;20479;-70
2022/08/25 01:00:00;;;;;;;12.17;7.90;;;;;;;23.05;71.29;101520.31;5085312;28;20389;-70
2022/08/25 01:02:26;;;;;;;11.40;7.70;;;;;;;22.96;71.76;101518.47;5086174;27;20109;-70
2022/08/25 01:04:53;;;;;;;11.95;7.95;;;;;;;22.95;71.59;101516.78;5086820;27;20540;-70
2022/08/25 01:07:22;;;;;;;12.57;8.05;;;;;;;23.19;70.95;101519.91;5085986;27;20492;-70
2022/08/25 01:09:51;;;;;;;12.73;8.20;;;;;;;23.19;70.59;101511.88;5094020;27;20060;-70
2022/08/25 01:12:17;;;;;;;15.13;8.63;;;;;;;23.18;70.38;101517.34;5089045;27;20053;-70
2022/08/25 01:14:45;;;;;;;13.07;8.25;;;;;;;23.22;70.31;101514.25;5084619;27;20081;-71
2022/08/25 01:17:12;;;;;;;13.40;7.63;;;;;;;23.11;70.39;101513.56;5078880;27;20085;-70
2022/08/25 01:19:38;;;;;;;11.75;7.78;;;;;;;23.16;70.57;101505.97;5086666;28;20075;-71
2022/08/25 01:22:06;;;;;;;12.52;8.40;;;;;;;23.24;70.12;101514.94;5075537;27;20393;-71
2022/08/25 01:24:42;;;;;;;12.43;7.75;;;;;;;23.11;70.50;101514.41;5071913;28;20049;-70
2022/08/25 01:27:09;;;;;;;15.45;7.95;;;;;;;23.03;70.88;101511.59;5096110;28;20047;-71
2022/08/25 01:29:36;;;;;;;12.05;8.18;;;;;;;23.01;70.67;101518.91;5083704;27;20103;-70
2022/08/25 01:32:07;;;;;;;14.50;8.35;;;;;;;22.87;71.07;101507.78;5076824;28;20116;-70
2022/08/25 01:34:36;;;;;;;12.82;8.02;;;;;;;22.67;71.74;101509.56;5085295;28;20048;-70
2022/08/25 01:37:06;;;;;;;15.82;8.45;;;;;;;22.70;71.79;101509.31;5085905;27;20071;-70
2022/08/25 01:39:35;;;;;;;13.85;8.40;;;;;;;22.73;71.43;101501.00;5091698;27;20648;-71
2022/08/25 01:42:33;;;;;;;13.75;8.63;;;;;;;22.70;71.65;101502.13;5084194;27;20040;-71
2022/08/25 01:44:59;;;;;;;14.57;8.48;;;;;;;22.57;72.12;101506.03;5085607;27;20050;-71
2022/08/25 01:47:26;;;;;;;19.40;9.85;;;;;;;22.73;71.54;101501.84;5087387;27;20097;-71
2022/08/25 01:49:52;;;;;;;15.57;8.65;;;;;;;22.66;71.63;101499.84;5085682;27;20093;-71
2022/08/25 01:52:24;;;;;;;13.75;8.73;;;;;;;22.51;72.00;101498.53;5085341;27;20051;-71
2022/08/25 01:54:51;;;;;;;21.40;8.80;;;;;;;22.48;72.19;101502.34;5079126;28;20552;-70
2022/08/25 01:57:17;;;;;;;16.60;9.43;;;;;;;22.57;71.69;101495.34;5086667;27;20036;-70
2022/08/25 01:59:44;;;;;;;13.73;9.35;;;;;;;22.60;71.75;101495.06;5085273;28;20100;-70
2022/08/25 02:02:11;;;;;;;17.48;9.05;;;;;;;22.63;71.46;101498.28;5086436;28;20054;-71
2022/08/25 02:04:38;;;;;;;12.50;8.65;;;;;;;22.33;72.61;101495.69;5085880;28;20619;-71
2022/08/25 02:07:08;;;;;;;12.50;9.10;;;;;;;22.22;72.75;101493.13;5084618;28;20040;-70
2022/08/25 02:09:37;;;;;;;14.23;8.98;;;;;;;22.39;72.06;101488.97;5081913;27;20044;-71
2022/08/25 02:12:04;;;;;;;13.95;8.55;;;;;;;22.35;72.37;101488.41;5093941;28;20048;-70
2022/08/25 02:14:30;;;;;;;16.08;9.43;;;;;;;22.14;73.20;101483.13;5084942;28;20052;-70
2022/08/25 02:16:57;;;;;;;13.57;9.40;;;;;;;22.27;72.31;101489.09;5076333;27;20048;-70
2022/08/25 02:19:24;;;;;;;13.05;9.60;;;;;;;22.08;73.09;101493.50;5085980;27;20052;-71
2022/08/25 02:21:51;;;;;;;15.05;9.38;;;;;;;22.18;72.25;101492.56;5084062;27;20048;-70
2022/08/25 02:24:18;;;;;;;13.45;9.15;;;;;;;22.15;72.23;101489.31;5084819;27;20052;-71
2022/08/25 02:26:45;;;;;;;14.13;9.10;;;;;;;22.06;71.78;101496.31;5086544;28;20093;-71
2022/08/25 02:29:12;;;;;;;14.70;10.00;;;;;;;21.93;72.48;101490.34;5084006;28;20098;-71
2022/08/25 02:31:39;;;;;;;13.63;9.65;;;;;;;21.85;73.10;101491.00;5086757;28;20093;-71
2022/08/25 02:34:07;;;;;;;17.10;9.90;;;;;;;21.73;73.58;101493.88;5085536;27;20117;-71
2022/08/25 02:36:34;;;;;;;17.08;10.05;;;;;;;21.75;73.38;101489.25;5083315;28;20145;-71
2022/08/25 02:39:00;;;;;;;15.85;9.93;;;;;;;21.63;73.98;101485.81;5089818;27;20051;-71
2022/08/25 02:41:28;;;;;;;18.15;10.25;;;;;;;21.56;73.85;101487.34;5088339;27;20048;-68
2022/08/25 02:43:57;;;;;;;22.20;10.20;;;;;;;21.40;74.99;101483.41;5084697;27;20048;-68
2022/08/25 02:46:24;;;;;;;15.55;10.10;;;;;;;21.41;75.30;101487.78;5086186;27;20052;-67
2022/08/25 02:48:52;;;;;;;15.75;10.60;;;;;;;21.43;75.41;101477.84;5085709;27;20048;-67
2022/08/25 02:51:19;;;;;;;19.75;10.65;;;;;;;21.52;75.18;101479.72;5078308;27;20045;-68
2022/08/25 02:53:46;;;;;;;14.48;10.20;;;;;;;21.63;74.67;101480.47;5085703;28;20085;-67
2022/08/25 02:56:15;;;;;;;19.27;10.40;;;;;;;21.58;75.00;101480.03;5085668;28;20071;-68
2022/08/25 02:58:42;;;;;;;21.98;12.30;;;;;;;21.65;74.76;101480.38;5082762;27;20496;-68
2022/08/25 03:01:11;;;;;;;15.40;11.18;;;;;;;21.54;75.12;101470.63;5084716;28;20048;-67
2022/08/25 03:03:39;;;;;;;18.35;12.15;;;;;;;21.44;75.92;101471.50;5084979;28;20071;-67
2022/08/25 03:06:05;;;;;;;18.08;11.70;;;;;;;21.54;75.13;101475.97;5083458;28;20450;-67
2022/08/25 03:08:32;;;;;;;17.20;11.10;;;;;;;21.67;74.83;101475.72;5085319;27;20039;-68
2022/08/25 03:10:58;;;;;;;16.05;11.70;;;;;;;21.59;74.37;101465.72;5090064;27;20076;-68
2022/08/25 03:13:24;;;;;;;19.42;12.70;;;;;;;21.54;74.51;101464.44;5082468;28;20040;-67
2022/08/25 03:15:51;;;;;;;19.52;12.63;;;;;;;21.45;74.63;101462.53;5082885;28;20044;-67
2022/08/25 03:18:18;;;;;;;18.13;12.07;;;;;;;21.44;74.92;101466.19;5085482;28;20044;-67
2022/08/25 03:20:45;;;;;;;20.83;12.75;;;;;;;21.49;74.66;101459.47;5083345;28;20044;-69
2022/08/25 03:23:11;;;;;;;18.60;12.13;;;;;;;21.38;75.72;101466.72;5065084;28;20098;-68
2022/08/25 03:28:23;;;;;;;19.50;13.27;;;;;;;21.43;76.29;101464.50;5088094;28;20055;-67
2022/08/25 03:30:49;;;;;;;18.30;13.20;;;;;;;21.57;76.23;101462.34;5077374;27;20098;-68
2022/08/25 03:33:16;;;;;;;19.58;13.80;;;;;;;21.52;76.39;101461.88;5082835;27;20040;-68
2022/08/25 03:35:43;;;;;;;20.88;13.82;;;;;;;21.58;76.04;101468.53;5085017;28;20097;-68
2022/08/25 03:38:10;;;;;;;20.75;12.30;;;;;;;21.64;76.07;101463.50;5091915;27;20044;-68
2022/08/25 03:40:36;;;;;;;18.98;13.07;;;;;;;21.57;75.92;101461.50;5085063;27;20657;-67
2022/08/25 03:43:03;;;;;;;21.33;13.27;;;;;;;21.71;75.86;101462.00;5085010;27;20048;-68
2022/08/25 03:45:30;;;;;;;18.23;12.32;;;;;;;21.53;76.67;101465.41;5085901;27;20461;-67
2022/08/25 03:47:56;;;;;;;19.17;13.02;;;;;;;21.41;77.22;101464.63;5082995;27;20044;-68
2022/08/25 03:50:24;;;;;;;20.45;13.23;;;;;;;21.48;76.80;101460.44;5083824;27;20040;-68
2022/08/25 03:52:53;;;;;;;20.65;13.55;;;;;;;21.61;76.38;101457.59;5084373;27;20040;-67
2022/08/25 03:55:21;;;;;;;20.98;13.70;;;;;;;21.60;76.51;101459.41;5081648;27;20048;-67
2022/08/25 03:57:48;;;;;;;19.33;12.70;;;;;;;21.49;76.40;101466.63;5083843;28;20076;-67
2022/08/25 04:00:14;;;;;;;21.95;14.38;;;;;;;21.54;76.27;101459.94;5084091;28;20564;-67
2022/08/25 04:02:41;;;;;;;28.90;13.77;;;;;;;21.52;76.48;101461.03;5081306;27;20451;-68
2022/08/25 04:05:09;;;;;;;19.15;13.50;;;;;;;21.38;76.13;101456.88;5062831;28;20667;-67
2022/08/25 04:07:36;;;;;;;22.88;13.90;;;;;;;21.22;77.28;101453.81;5086384;27;20116;-68
2022/08/25 04:10:04;;;;;;;23.13;14.48;;;;;;;21.20;77.80;101451.31;5093036;27;20079;-68
2022/08/25 04:12:30;;;;;;;20.55;14.35;;;;;;;21.20;78.06;101445.97;5082826;27;20043;-68
2022/08/25 04:14:58;;;;;;;23.00;14.15;;;;;;;21.03;78.56;101448.31;5084103;27;20044;-68
2022/08/25 04:17:24;;;;;;;26.45;15.43;;;;;;;20.77;80.05;101458.50;5082483;28;20044;-68
2022/08/25 04:19:51;;;;;;;24.48;13.75;;;;;;;20.61;81.09;101453.63;5082773;27;20044;-68
2022/08/25 04:22:18;;;;;;;22.98;15.23;;;;;;;20.67;80.60;101454.91;5069492;27;20439;-68
2022/08/25 04:24:45;;;;;;;24.02;14.48;;;;;;;20.89;79.49;101450.34;5070402;28;20045;-68
2022/08/25 04:27:12;;;;;;;26.70;14.43;;;;;;;20.95;79.44;101456.16;5080453;27;20671;-68
2022/08/25 04:29:38;;;;;;;22.33;14.50;;;;;;;20.88;79.34;101461.13;5069704;28;20044;-68
2022/08/25 04:32:05;;;;;;;20.02;14.30;;;;;;;20.75;79.76;101463.97;5085339;28;20044;-67
2022/08/25 04:34:31;;;;;;;22.20;14.23;;;;;;;20.86;79.58;101466.59;5087047;28;20064;-67
2022/08/25 04:36:59;;;;;;;25.67;14.48;;;;;;;21.01;79.30;101461.81;5066510;28;20488;-68
2022/08/25 04:39:26;;;;;;;28.05;13.93;;;;;;;21.00;79.43;101470.75;5061890;28;20548;-67
2022/08/25 04:41:52;;;;;;;28.65;15.43;;;;;;;21.13;79.21;101463.47;5068677;28;20155;-67
2022/08/25 04:44:20;;;;;;;24.33;14.07;;;;;;;21.13;79.36;101468.81;5078276;27;20047;-67
2022/08/25 04:46:46;;;;;;;21.40;13.82;;;;;;;21.15;79.37;101474.00;5084515;27;20525;-67
2022/08/25 04:49:13;;;;;;;19.85;13.52;;;;;;;21.02;79.66;101474.16;5086515;27;20043;-67
2022/08/25 04:51:41;;;;;;;23.63;14.68;;;;;;;20.97;80.53;101483.50;5080213;27;20097;-67
2022/08/25 04:54:10;;;;;;;25.23;14.75;;;;;;;21.16;79.92;101473.88;5081896;28;20039;-67
2022/08/25 04:56:37;;;;;;;23.88;14.57;;;;;;;21.29;79.74;101471.84;5087184;27;20048;-67
2022/08/25 04:59:05;;;;;;;24.88;14.32;;;;;;;21.44;79.04;101477.69;5086830;28;20537;-66
2022/08/25 05:01:34;;;;;;;23.85;14.63;;;;;;;21.38;79.38;101477.38;5085378;28;20051;-67
2022/08/25 05:04:04;;;;;;;26.10;15.32;;;;;;;21.54;79.08;101477.78;5086704;27;20044;-67
2022/08/25 05:06:31;;;;;;;21.15;14.27;;;;;;;21.65;78.80;101481.22;5086786;27;20204;-67
2022/08/25 05:08:59;;;;;;;19.90;14.65;;;;;;;21.69;79.18;101476.47;5086804;27;20040;-66
2022/08/25 05:11:26;;;;;;;21.15;13.93;;;;;;;21.96;77.82;101470.53;5086047;27;20468;-67
2022/08/25 05:13:54;;;;;;;20.65;13.80;;;;;;;22.05;77.49;101473.28;5087876;27;20568;-66
2022/08/25 05:16:22;;;;;;;26.98;14.73;;;;;;;22.18;77.01;101465.00;5077622;27;20132;-66
2022/08/25 05:18:50;;;;;;;24.15;15.23;;;;;;;22.22;77.11;101472.59;5070645;28;20049;-65
2022/08/25 05:21:19;;;;;;;22.00;15.05;;;;;;;22.17;77.53;101464.16;5060259;28;20103;-66
2022/08/25 05:23:46;;;;;;;23.48;14.07;;;;;;;22.34;77.19;101457.31;5065027;28;20094;-67
2022/08/25 05:26:15;;;;;;;27.35;16.13;;;;;;;22.43;77.47;101450.31;5066012;28;20047;-67
2022/08/25 05:28:42;;;;;;;31.67;16.85;;;;;;;22.36;78.23;101449.16;5065015;28;20044;-67
2022/08/25 05:31:11;;;;;;;27.02;16.73;;;;;;;22.56;78.32;101453.53;5066848;28;20098;-67
2022/08/25 05:33:38;;;;;;;27.95;16.45;;;;;;;22.42;78.67;101449.47;5072888;28;21804;-67
2022/08/25 05:36:08;;;;;;;30.73;16.02;;;;;;;22.44;79.39;101452.81;5085942;28;20040;-67
2022/08/25 05:38:35;;;;;;;31.00;18.23;;;;;;;22.40;79.31;101454.06;5088039;27;20040;-67
2022/08/25 05:41:04;;;;;;;27.85;15.25;;;;;;;22.08;81.14;101459.63;5075473;27;20044;-67
2022/08/25 05:43:30;;;;;;;29.50;15.82;;;;;;;21.68;83.54;101456.91;5066614;27;20066;-67
2022/08/25 05:45:58;;;;;;;34.63;17.05;;;;;;;21.99;83.01;101467.63;5086109;27;20109;-66
2022/08/25 05:48:26;;;;;;;27.60;16.75;;;;;;;22.34;81.27;101478.69;5087255;27;20403;-66
2022/08/25 05:50:52;;;;;;;27.35;15.38;;;;;;;22.51;80.38;101470.00;5084263;27;20040;-66
2022/08/25 05:53:21;;;;;;;27.05;15.23;;;;;;;22.42;80.36;101478.84;5085579;27;20098;-67
2022/08/25 05:55:47;;;;;;;31.10;17.45;;;;;;;22.60;79.93;101479.03;5085989;27;20082;-67
2022/08/25 05:58:13;;;;;;;24.92;16.33;;;;;;;22.69;80.13;101475.53;5084573;27;20065;-67
2022/08/25 06:00:40;;;;;;;24.90;14.73;;;;;;;22.87;79.84;101470.34;5085383;28;20047;-67
2022/08/25 06:03:06;;;;;;;25.98;15.30;;;;;;;23.07;78.14;101477.38;5086020;27;20066;-67
2022/08/25 06:05:33;;;;;;;28.38;16.38;;;;;;;23.00;78.13;101485.13;5084450;27;20055;-68
2022/08/25 06:07:59;;;;;;;23.42;14.20;;;;;;;23.07;78.00;101480.88;5084960;27;20069;-67
2022/08/25 06:10:28;;;;;;;29.13;15.18;;;;;;;23.08;78.78;101479.91;5085972;27;20495;-67
2022/08/25 06:12:55;;;;;;;25.00;14.02;;;;;;;23.41;77.64;101489.31;5084705;27;20044;-67
2022/08/25 06:15:23;;;;;;;25.05;14.70;;;;;;;23.43;77.24;101481.19;5085665;27;20048;-67
2022/08/25 06:17:51;;;;;;;23.52;12.70;;;;;;;23.65;76.29;101478.16;5085760;28;20089;-67
2022/08/25 06:20:20;;;;;;;21.83;13.93;;;;;;;23.71;75.92;101472.22;5084447;28;20047;-67
2022/08/25 06:22:46;;;;;;;24.75;14.43;;;;;;;23.77;75.83;101464.44;5067949;28;20566;-67
2022/08/25 06:25:15;;;;;;;21.33;13.30;;;;;;;23.79;74.70;101468.78;5074884;28;20462;-68
2022/08/25 06:27:43;;;;;;;23.95;14.25;;;;;;;23.80;75.34;101470.50;5075027;28;20044;-68
2022/08/25 06:30:13;;;;;;;23.65;13.30;;;;;;;23.90;75.44;101466.78;5086104;28;20537;-67
2022/08/25 06:32:42;;;;;;;20.40;13.27;;;;;;;24.22;73.87;101474.41;5083599;27;20047;-67
2022/08/25 06:35:11;;;;;;;22.10;13.57;;;;;;;24.64;72.80;101472.03;5084827;28;20065;-67
2022/08/25 06:37:38;;;;;;;18.33;12.00;;;;;;;24.84;72.43;101475.41;5084190;27;20196;-67
2022/08/25 06:40:07;;;;;;;19.73;12.18;;;;;;;24.28;73.26;101473.78;5084019;27;20055;-67
2022/08/25 06:42:33;;;;;;;20.23;12.60;;;;;;;24.07;73.72;101473.19;5085519;27;20586;-67
2022/08/25 06:45:01;;;;;;;19.92;13.13;;;;;;;24.15;73.94;101476.84;5085277;27;20064;-67
2022/08/25 06:47:28;;;;;;;21.27;13.15;;;;;;;24.51;70.73;101477.75;5082508;27;20097;-67
2022/08/25 06:49:54;;;;;;;25.15;13.75;;;;;;;24.56;71.70;101482.66;5083958;27;20442;-66
2022/08/25 06:52:20;;;;;;;21.33;12.73;;;;;;;24.48;70.76;101482.56;5076926;27;20089;-67
2022/08/25 06:54:47;;;;;;;27.08;13.15;;;;;;;24.84;70.64;101475.41;5083692;28;20480;-66
2022/08/25 06:57:14;;;;;;;24.35;13.38;;;;;;;24.46;71.81;101485.41;5082995;28;20486;-66
2022/08/25 06:59:41;;;;;;;20.60;13.10;;;;;;;24.51;71.93;101477.75;5064338;28;20055;-66
2022/08/25 07:02:08;;;;;;;21.13;14.13;;;;;;;24.64;72.18;101474.69;5082563;28;20052;-66
2022/08/25 07:04:36;;;;;;;21.05;11.93;;;;;;;24.48;71.36;101479.88;5085510;27;20457;-67
2022/08/25 07:07:04;;;;;;;18.33;12.10;;;;;;;25.07;71.70;101465.91;5082710;27;20458;-67
2022/08/25 07:09:30;;;;;;;18.67;12.57;;;;;;;25.62;70.03;101470.00;5083353;27;20466;-66
2022/08/25 07:11:57;;;;;;;22.92;12.15;;;;;;;26.42;67.25;101474.06;5085335;27;20044;-66
2022/08/25 07:14:24;;;;;;;16.60;11.18;;;;;;;26.86;64.32;101472.03;5084127;28;20403;-66
2022/08/25 07:16:50;;;;;;;21.48;11.73;;;;;;;26.62;64.24;101469.25;5082592;27;20036;-67
2022/08/25 07:19:20;;;;;;;18.23;10.77;;;;;;;25.73;66.90;101468.03;5083706;27;20068;-66
2022/08/25 07:21:47;;;;;;;19.83;12.13;;;;;;;26.11;64.56;101465.72;5082590;27;20058;-66
2022/08/25 07:24:13;;;;;;;15.95;11.45;;;;;;;26.49;64.98;101468.91;5076690;27;20047;-67
2022/08/25 07:26:42;;;;;;;21.38;11.32;;;;;;;26.95;64.30;101467.47;5084282;28;20043;-67
2022/08/25 07:29:11;;;;;;;17.73;10.27;;;;;;;27.49;64.15;101469.47;5079257;28;20055;-66
2022/08/25 07:31:38;;;;;;;15.10;10.73;;;;;;;27.61;61.49;101469.94;5083175;27;20094;-66
2022/08/25 07:36:50;;;;;;;14.70;9.85;;;;;;;28.86;59.18;101465.31;5064403;28;20060;-67
2022/08/25 07:39:16;;;;;;;15.30;9.43;;;;;;;29.13;57.34;101454.97;5063745;28;20545;-66
2022/08/25 07:41:43;;;;;;;17.92;9.15;;;;;;;29.43;56.18;101454.03;5065189;28;20734;-65
2022/08/25 07:44:11;;;;;;;15.85;8.63;;;;;;;29.55;54.15;101452.56;5064025;28;20385;-66
2022/08/25 07:46:39;;;;;;;18.05;8.48;;;;;;;29.75;54.82;101450.97;5064622;28;20090;-65
2022/08/25 07:49:06;;;;;;;15.30;7.90;;;;;;;29.91;54.16;101450.81;5065215;28;20125;-65
2022/08/25 07:51:32;;;;;;;13.63;8.43;;;;;;;30.59;52.38;101457.69;5071166;28;20114;-66
2022/08/25 07:54:00;;;;;;;14.73;8.50;;;;;;;30.34;52.54;101456.34;5074847;28;20109;-66
2022/08/25 07:56:26;;;;;;;10.02;7.63;;;;;;;30.58;52.02;101453.31;5086312;28;20145;-65
2022/08/25 07:58:53;;;;;;;13.75;7.90;;;;;;;29.66;52.69;101457.50;5076343;27;20040;-65
2022/08/25 08:01:22;;;;;;;14.93;8.30;;;;;;;29.91;54.92;101460.78;5090551;28;20052;-65
2022/08/25 08:03:49;;;;;;;13.70;7.88;;;;;;;29.66;53.96;101454.81;5077895;28;20507;-65
2022/08/25 08:06:18;;;;;;;11.70;7.93;;;;;;;30.32;51.53;101461.09;5081755;28;20056;-65
2022/08/25 08:08:48;;;;;;;14.40;7.40;;;;;;;30.55;49.86;101463.69;5089686;27;20098;-65
2022/08/25 08:11:17;;;;;;;12.88;7.60;;;;;;;31.34;51.34;101455.25;5090501;27;20064;-65
2022/08/25 08:13:43;;;;;;;12.90;8.15;;;;;;;31.77;48.97;101463.28;5088849;27;20091;-65
2022/08/25 08:16:09;;;;;;;10.13;7.20;;;;;;;32.00;49.06;101460.28;5090696;27;20040;-65
2022/08/25 08:18:36;;;;;;;23.67;7.88;;;;;;;32.35;47.84;101453.75;5091031;27;20537;-65
2022/08/25 08:21:03;;;;;;;16.60;7.47;;;;;;;32.10;48.77;101448.03;5087290;27;20565;-66
2022/08/25 08:23:29;;;;;;;13.98;8.02;;;;;;;32.36;46.89;101450.00;5086777;27;20040;-66
2022/08/25 08:25:56;;;;;;;13.32;7.45;;;;;;;32.29;47.30;101449.16;5089156;28;20070;-66
2022/08/25 08:28:26;;;;;;;15.57;8.40;;;;;;;32.55;46.71;101440.22;5088109;27;20070;-66
2022/08/25 08:30:53;;;;;;;18.08;8.10;;;;;;;32.71;45.26;101431.69;5087773;28;20403;-66
2022/08/25 08:33:20;;;;;;;14.10;7.35;;;;;;;32.30;46.00;101434.50;5088391;27;20052;-66
2022/08/25 08:35:46;;;;;;;14.60;7.97;;;;;;;32.70;46.43;101436.31;5087088;27;20109;-66
2022/08/25 08:38:12;;;;;;;12.65;7.70;;;;;;;33.16;45.51;101432.78;5088042;27;20062;-66
2022/08/25 08:42:15;;;;;;;14.38;7.40;;;;;;;32.47;44.43;101440.41;5087124;27;20551;-66
2022/08/25 08:43:36;;;;;;;12.55;7.38;;;;;;;32.04;47.26;101429.00;5079740;27;20505;-66
2022/08/25 08:46:04;;;;;;;14.73;7.72;;;;;;;32.42;45.95;101429.31;5087157;27;20042;-67
2022/08/25 08:48:44;;;;;;;14.23;7.10;;;;;;;32.73;47.36;101430.47;5089553;27;20093;-67
2022/08/25 08:51:19;;;;;;;17.02;7.22;;;;;;;33.08;44.29;101430.25;5075876;28;20056;-67
2022/08/25 08:53:51;;;;;;;11.85;7.25;;;;;;;33.87;43.04;101432.88;5071860;28;20535;-67
2022/08/25 08:56:22;;;;;;;12.15;7.05;;;;;;;33.59;44.23;101430.44;5083922;27;20109;-67
2022/08/25 08:58:54;;;;;;;10.88;7.22;;;;;;;34.15;41.88;101427.94;5088378;28;20093;-67
2022/08/25 09:01:25;;;;;;;14.90;6.82;;;;;;;33.48;43.87;101422.94;5096209;27;20048;-66
2022/08/25 09:03:58;;;;;;;10.85;7.15;;;;;;;33.34;43.70;101422.09;5065195;28;20056;-67
2022/08/25 09:06:31;;;;;;;13.70;7.30;;;;;;;34.08;44.16;101414.34;5081628;27;20109;-67
2022/08/25 09:09:01;;;;;;;13.20;6.47;;;;;;;34.85;41.02;101415.19;5075267;27;20073;-67
2022/08/25 09:11:41;;;;;;;11.00;5.95;;;;;;;34.90;40.90;101418.91;5087990;27;20102;-67
2022/08/25 09:14:23;;;;;;;13.80;6.88;;;;;;;34.82;39.74;101421.88;5087550;27;20036;-68
2022/08/25 09:16:59;;;;;;;13.23;6.55;;;;;;;34.48;40.55;101414.16;5079360;27;20093;-68
2022/08/25 09:20:03;;;;;;;12.25;6.45;;;;;;;34.21;40.61;101416.22;5073902;28;20071;-67
2022/08/25 09:22:44;;;;;;;10.32;6.50;;;;;;;33.99;43.00;101410.22;5079057;27;20082;-67
2022/08/25 09:25:19;;;;;;;14.43;6.25;;;;;;;33.64;40.72;101412.44;5086611;27;20048;-67
2022/08/25 09:27:55;;;;;;;9.85;5.40;;;;;;;33.47;40.60;101404.94;5087386;27;20036;-68
2022/08/25 09:30:23;;;;;;;16.58;6.22;;;;;;;33.86;41.62;101414.88;5087002;28;20093;-66
2022/08/25 09:33:00;;;;;;;14.80;5.88;;;;;;;33.64;41.36;101417.03;5086578;28;20521;-66
2022/08/25 09:35:29;;;;;;;10.25;5.75;;;;;;;33.48;41.72;101415.59;5076488;28;20040;-68
2022/08/25 09:37:56;;;;;;;17.63;7.05;;;;;;;32.22;43.44;101408.44;5068923;28;20044;-67
2022/08/25 09:40:24;;;;;;;12.30;6.25;;;;;;;32.53;44.77;101404.28;5067242;28;20049;-67
2022/08/25 09:42:53;;;;;;;12.73;6.03;;;;;;;33.07;44.46;101390.56;5064822;28;20044;-67
2022/08/25 09:45:34;;;;;;;8.80;5.90;;;;;;;33.90;41.89;101394.34;5066521;28;20051;-67
2022/08/25 09:48:01;;;;;;;22.30;6.83;;;;;;;33.18;43.29;101385.34;5064943;28;20044;-67
2022/08/25 09:50:31;;;;;;;11.95;6.43;;;;;;;33.15;42.45;101379.47;5066019;28;20059;-67
2022/08/25 09:53:12;;;;;;;13.52;6.68;;;;;;;32.81;44.15;101377.84;5065295;28;20041;-67
2022/08/25 09:55:40;;;;;;;11.50;6.10;;;;;;;32.95;43.59;101375.94;5074024;28;20058;-67
2022/08/25 09:58:17;;;;;;;13.63;7.13;;;;;;;32.84;44.96;101373.84;5085290;28;20105;-68
2022/08/25 10:01:00;;;;;;;13.23;6.63;;;;;;;33.61;42.36;101380.22;5084485;27;20052;-67
2022/08/25 10:03:26;;;;;;;12.20;5.88;;;;;;;33.97;42.06;101373.38;5076043;27;20052;-67
2022/08/25 10:06:04;;;;;;;14.10;6.40;;;;;;;33.39;42.29;101359.78;5084542;27;20044;-67
2022/08/25 10:08:34;;;;;;;16.42;6.65;;;;;;;33.64;42.32;101357.22;5086651;27;20127;-67
2022/08/25 10:11:03;;;;;;;15.63;6.70;;;;;;;33.62;42.02;101357.41;5084687;27;20403;-68
2022/08/25 10:13:39;;;;;;;17.20;6.13;;;;;;;33.42;41.35;101355.78;5083990;27;20104;-67
2022/08/25 10:16:12;;;;;;;12.02;6.22;;;;;;;33.07;41.31;101347.91;5085289;27;20068;-68
2022/08/25 10:18:38;;;;;;;10.23;6.28;;;;;;;31.95;43.67;101348.81;5084836;27;20629;-68
2022/08/25 10:21:09;;;;;;;13.23;6.97;;;;;;;31.84;44.59;101344.81;5083411;27;20044;-67
2022/08/25 10:23:40;;;;;;;9.52;6.38;;;;;;;30.57;48.81;101345.22;5068215;28;20044;-68
2022/08/25 10:26:15;;;;;;;14.63;6.40;;;;;;;30.84;47.65;101339.00;5079288;28;20265;-68
2022/08/25 10:28:52;;;;;;;13.35;6.45;;;;;;;31.38;45.90;101336.44;5058883;28;20340;-68
2022/08/25 10:31:24;;;;;;;14.88;6.25;;;;;;;31.04;45.12;101337.31;5066377;28;20144;-68
2022/08/25 10:34:06;;;;;;;12.02;6.10;;;;;;;31.37;44.75;101341.03;5085384;28;20412;-68
2022/08/25 10:36:43;;;;;;;9.25;6.18;;;;;;;30.80;45.98;101327.72;5084827;28;20056;-68
2022/08/25 10:39:22;;;;;;;14.95;6.82;;;;;;;30.90;47.49;101321.94;5086376;28;20048;-68
2022/08/25 10:41:57;;;;;;;11.18;6.70;;;;;;;31.60;46.73;101326.34;5076660;28;20547;-69
2022/08/25 10:47:34;;;;;;;13.68;6.55;;;;;;;32.06;44.18;101321.09;5085986;27;20055;-68
2022/08/25 10:50:05;;;;;;;13.05;7.18;;;;;;;32.29;45.01;101311.56;5065831;27;20493;-67
2022/08/25 10:52:38;;;;;;;12.63;6.32;;;;;;;32.69;42.29;101309.72;5083061;27;20051;-68
2022/08/25 10:55:13;;;;;;;12.50;6.95;;;;;;;32.99;41.11;101307.38;5068963;28;20048;-68
2022/08/25 10:57:55;;;;;;;13.45;6.30;;;;;;;32.27;46.93;101305.50;5084322;28;20047;-68
2022/08/25 11:00:22;;;;;;;;;;;;;;;32.11;43.69;101303.19;5085395;28;20048;-68
2022/08/25 11:03:17;;;;;;;15.98;6.63;;;;;;;32.17;43.35;101305.06;5083965;28;19973;-68
2022/08/25 11:05:50;;;;;;;13.95;6.95;;;;;;;31.95;45.48;101300.00;5079999;28;20480;-68
2022/08/25 11:08:26;;;;;;;11.82;6.43;;;;;;;32.36;44.07;101297.16;5066654;28;20114;-68
2022/08/25 11:10:59;;;;;;;14.60;7.22;;;;;;;32.58;42.54;101301.34;5063709;27;20044;-68
2022/08/25 11:13:35;;;;;;;10.00;6.90;;;;;;;33.08;42.38;101302.53;5065085;28;20102;-68
2022/08/25 11:16:06;;;;;;;12.65;6.97;;;;;;;32.66;41.89;101293.84;5082275;28;20093;-67
2022/08/25 11:18:34;;;;;;;14.23;6.70;;;;;;;32.49;42.88;101287.13;5083677;28;20499;-67
2022/08/25 11:21:07;;;;;;;12.65;6.53;;;;;;;32.50;42.82;101291.53;5086217;28;20047;-68
2022/08/25 11:23:39;;;;;;;12.13;6.82;;;;;;;32.21;43.72;101283.78;5086881;28;20074;-68
2022/08/25 11:26:11;;;;;;;14.48;7.20;;;;;;;32.45;42.37;101283.16;5061886;28;20043;-68
2022/08/25 11:28:43;;;;;;;;;;;;;;;33.07;41.99;101280.00;5067428;28;20094;-68
2022/08/25 11:31:10;;;;;;;17.83;7.25;;;;;;;32.20;42.17;101279.41;5082895;28;19920;-68